sensor_id;sensor_type;location;lat;lon;timestamp;temperature;humidity
40153;DHT22;26371;56.992;23.912;2024-01-25T00:01:40;3.70;99.90
40153;DHT22;26371;56.992;23.912;2024-01-25T00:04:09;3.70;99.90
40153;DHT22;26371;56.992;23.912;2024-01-25T00:06:38;3.70;99.90
40153;DHT22;26371;56.992;23.912;2024-01-25T00:09:07;3.70;99.90
40153;DHT22;26371;56.992;23.912;2024-01-25T00:11:37;3.70;99.90
40153;DHT22;26371;56.992;23.912;2024-01-25T00:14:08;3.70;99.90
40153;DHT22;26371;56.992;23.912;2024-01-25T00:16:40;3.70;99.90
40153;DHT22;26371;56.992;23.912;2024-01-25T00:19:09;3.70;99.90
40153;DHT22;26371;56.992;23.912;2024-01-25T00:21:42;3.70;99.90
40153;DHT22;26371;56.992;23.912;2024-01-25T00:24:12;3.70;99.90
40153;DHT22;26371;56.992;23.912;2024-01-25T00:26:42;3.60;99.90
40153;DHT22;26371;56.992;23.912;2024-01-25T00:29:12;3.60;99.90
40153;DHT22;26371;56.992;23.912;2024-01-25T00:31:42;3.60;99.90
40153;DHT22;26371;56.992;23.912;2024-01-25T00:34:11;3.60;99.90
40153;DHT22;26371;56.992;23.912;2024-01-25T00:36:41;3.70;99.90
40153;DHT22;26371;56.992;23.912;2024-01-25T00:39:10;3.70;99.90
40153;DHT22;26371;56.992;23.912;2024-01-25T00:41:40;3.70;99.90
40153;DHT22;26371;56.992;23.912;2024-01-25T00:44:11;3.60;99.90
40153;DHT22;26371;56.992;23.912;2024-01-25T00:46:40;3.60;99.90
40153;DHT22;26371;56.992;23.912;2024-01-25T00:49:09;3.60;99.90
40153;DHT22;26371;56.992;23.912;2024-01-25T00:51:39;3.60;99.90
40153;DHT22;26371;56.992;23.912;2024-01-25T00:54:10;3.60;99.90
40153;DHT22;26371;56.992;23.912;2024-01-25T00:56:39;3.70;99.90
40153;DHT22;26371;56.992;23.912;2024-01-25T00:59:10;3.60;99.90
40153;DHT22;26371;56.992;23.912;2024-01-25T01:01:39;3.70;99.90
40153;DHT22;26371;56.992;23.912;2024-01-25T01:04:09;3.60;99.90
40153;DHT22;26371;56.992;23.912;2024-01-25T01:06:39;3.60;99.90
40153;DHT22;26371;56.992;23.912;2024-01-25T01:09:08;3.60;99.90
40153;DHT22;26371;56.992;23.912;2024-01-25T01:11:37;3.60;99.90
40153;DHT22;26371;56.992;23.912;2024-01-25T01:14:05;3.60;99.90
40153;DHT22;26371;56.992;23.912;2024-01-25T01:16:36;3.60;99.90
40153;DHT22;26371;56.992;23.912;2024-01-25T01:19:04;3.60;99.90
40153;DHT22;26371;56.992;23.912;2024-01-25T01:21:35;3.60;99.90
40153;DHT22;26371;56.992;23.912;2024-01-25T01:24:04;3.50;99.90
40153;DHT22;26371;56.992;23.912;2024-01-25T01:26:32;3.50;99.90
40153;DHT22;26371;56.992;23.912;2024-01-25T01:29:02;3.50;99.90
40153;DHT22;26371;56.992;23.912;2024-01-25T01:31:31;3.50;99.90
40153;DHT22;26371;56.992;23.912;2024-01-25T01:34:01;3.50;99.90
40153;DHT22;26371;56.992;23.912;2024-01-25T01:36:30;3.50;99.90
40153;DHT22;26371;56.992;23.912;2024-01-25T01:38:59;3.40;99.90
40153;DHT22;26371;56.992;23.912;2024-01-25T01:41:28;3.40;99.90
40153;DHT22;26371;56.992;23.912;2024-01-25T01:43:56;3.40;99.90
40153;DHT22;26371;56.992;23.912;2024-01-25T01:46:31;3.40;99.90
40153;DHT22;26371;56.992;23.912;2024-01-25T01:49:02;3.40;99.90
40153;DHT22;26371;56.992;23.912;2024-01-25T01:51:32;3.40;99.90
40153;DHT22;26371;56.992;23.912;2024-01-25T01:54:02;3.40;99.90
40153;DHT22;26371;56.992;23.912;2024-01-25T01:56:31;3.40;99.90
40153;DHT22;26371;56.992;23.912;2024-01-25T01:59:02;3.40;99.90
40153;DHT22;26371;56.992;23.912;2024-01-25T02:01:31;3.40;99.90
40153;DHT22;26371;56.992;23.912;2024-01-25T02:04:02;3.40;99.90
40153;DHT22;26371;56.992;23.912;2024-01-25T02:06:30;3.30;99.90
40153;DHT22;26371;56.992;23.912;2024-01-25T02:08:59;3.30;99.90
40153;DHT22;26371;56.992;23.912;2024-01-25T02:11:28;3.30;99.90
40153;DHT22;26371;56.992;23.912;2024-01-25T02:13:57;3.40;99.90
40153;DHT22;26371;56.992;23.912;2024-01-25T02:16:26;3.50;99.90
40153;DHT22;26371;56.992;23.912;2024-01-25T02:18:55;3.50;99.90
40153;DHT22;26371;56.992;23.912;2024-01-25T02:21:27;3.50;99.90
40153;DHT22;26371;56.992;23.912;2024-01-25T02:23:57;3.50;99.90
40153;DHT22;26371;56.992;23.912;2024-01-25T02:26:26;3.50;99.90
40153;DHT22;26371;56.992;23.912;2024-01-25T02:28:55;3.50;99.90
40153;DHT22;26371;56.992;23.912;2024-01-25T02:31:24;3.60;99.90
40153;DHT22;26371;56.992;23.912;2024-01-25T02:33:52;3.60;99.90
40153;DHT22;26371;56.992;23.912;2024-01-25T02:36:22;3.60;99.90
40153;DHT22;26371;56.992;23.912;2024-01-25T02:38:51;3.60;99.90
40153;DHT22;26371;56.992;23.912;2024-01-25T02:41:21;3.60;99.90
40153;DHT22;26371;56.992;23.912;2024-01-25T02:43:49;3.60;99.90
40153;DHT22;26371;56.992;23.912;2024-01-25T02:46:18;3.50;99.90
40153;DHT22;26371;56.992;23.912;2024-01-25T02:48:47;3.40;99.90
40153;DHT22;26371;56.992;23.912;2024-01-25T02:51:17;3.40;99.90
40153;DHT22;26371;56.992;23.912;2024-01-25T02:53:46;3.30;99.90
40153;DHT22;26371;56.992;23.912;2024-01-25T02:56:15;3.20;99.90
40153;DHT22;26371;56.992;23.912;2024-01-25T02:58:52;3.10;99.90
40153;DHT22;26371;56.992;23.912;2024-01-25T03:01:20;3.00;99.90
40153;DHT22;26371;56.992;23.912;2024-01-25T03:03:49;2.90;99.90
40153;DHT22;26371;56.992;23.912;2024-01-25T03:06:18;2.80;99.90
40153;DHT22;26371;56.992;23.912;2024-01-25T03:08:46;2.80;99.90
40153;DHT22;26371;56.992;23.912;2024-01-25T03:11:16;2.70;99.90
40153;DHT22;26371;56.992;23.912;2024-01-25T03:13:44;2.70;99.90
40153;DHT22;26371;56.992;23.912;2024-01-25T03:16:14;2.60;99.90
40153;DHT22;26371;56.992;23.912;2024-01-25T03:18:49;2.60;99.90
40153;DHT22;26371;56.992;23.912;2024-01-25T03:21:18;2.60;99.90
40153;DHT22;26371;56.992;23.912;2024-01-25T03:23:46;2.50;99.90
40153;DHT22;26371;56.992;23.912;2024-01-25T03:26:15;2.50;99.90
40153;DHT22;26371;56.992;23.912;2024-01-25T03:28:45;2.50;99.90
40153;DHT22;26371;56.992;23.912;2024-01-25T03:31:15;2.50;99.90
40153;DHT22;26371;56.992;23.912;2024-01-25T03:33:44;2.40;99.90
40153;DHT22;26371;56.992;23.912;2024-01-25T03:36:14;2.40;99.90
40153;DHT22;26371;56.992;23.912;2024-01-25T03:38:45;2.30;99.90
40153;DHT22;26371;56.992;23.912;2024-01-25T03:41:14;2.40;99.90
40153;DHT22;26371;56.992;23.912;2024-01-25T03:43:42;2.30;99.90
40153;DHT22;26371;56.992;23.912;2024-01-25T03:46:12;2.30;99.90
40153;DHT22;26371;56.992;23.912;2024-01-25T03:48:43;2.30;99.90
40153;DHT22;26371;56.992;23.912;2024-01-25T03:51:11;2.30;99.90
40153;DHT22;26371;56.992;23.912;2024-01-25T03:53:40;2.30;99.90
40153;DHT22;26371;56.992;23.912;2024-01-25T03:56:11;2.30;99.90
40153;DHT22;26371;56.992;23.912;2024-01-25T03:58:40;2.30;99.90
40153;DHT22;26371;56.992;23.912;2024-01-25T04:01:09;2.30;99.90
40153;DHT22;26371;56.992;23.912;2024-01-25T04:03:38;2.20;99.90
40153;DHT22;26371;56.992;23.912;2024-01-25T04:06:10;2.30;99.90
40153;DHT22;26371;56.992;23.912;2024-01-25T04:08:39;2.20;99.90
40153;DHT22;26371;56.992;23.912;2024-01-25T04:11:08;2.20;99.90
40153;DHT22;26371;56.992;23.912;2024-01-25T04:13:37;2.20;99.90
40153;DHT22;26371;56.992;23.912;2024-01-25T04:16:06;2.20;99.90
40153;DHT22;26371;56.992;23.912;2024-01-25T04:18:35;2.20;99.90
40153;DHT22;26371;56.992;23.912;2024-01-25T04:21:04;2.20;99.90
40153;DHT22;26371;56.992;23.912;2024-01-25T04:23:34;2.20;99.90
40153;DHT22;26371;56.992;23.912;2024-01-25T04:26:03;2.20;99.90
40153;DHT22;26371;56.992;23.912;2024-01-25T04:28:31;2.20;99.90
40153;DHT22;26371;56.992;23.912;2024-01-25T04:31:01;2.20;99.90
40153;DHT22;26371;56.992;23.912;2024-01-25T04:33:30;2.20;99.90
40153;DHT22;26371;56.992;23.912;2024-01-25T04:35:59;2.20;99.90
40153;DHT22;26371;56.992;23.912;2024-01-25T04:38:28;2.30;99.90
40153;DHT22;26371;56.992;23.912;2024-01-25T04:40:58;2.30;99.90
40153;DHT22;26371;56.992;23.912;2024-01-25T04:43:27;2.30;99.90
40153;DHT22;26371;56.992;23.912;2024-01-25T04:45:55;2.20;99.90
40153;DHT22;26371;56.992;23.912;2024-01-25T04:48:24;2.20;99.90
40153;DHT22;26371;56.992;23.912;2024-01-25T04:50:52;2.20;99.90
40153;DHT22;26371;56.992;23.912;2024-01-25T04:53:21;2.10;99.90
40153;DHT22;26371;56.992;23.912;2024-01-25T04:55:50;2.10;99.90
40153;DHT22;26371;56.992;23.912;2024-01-25T04:58:20;1.90;99.90
40153;DHT22;26371;56.992;23.912;2024-01-25T05:00:49;1.90;99.90
40153;DHT22;26371;56.992;23.912;2024-01-25T05:03:20;1.80;99.90
40153;DHT22;26371;56.992;23.912;2024-01-25T05:05:49;1.70;99.90
40153;DHT22;26371;56.992;23.912;2024-01-25T05:08:18;1.60;99.90
40153;DHT22;26371;56.992;23.912;2024-01-25T05:10:46;1.50;99.90
40153;DHT22;26371;56.992;23.912;2024-01-25T05:13:15;1.40;99.90
40153;DHT22;26371;56.992;23.912;2024-01-25T05:15:46;1.40;99.90
40153;DHT22;26371;56.992;23.912;2024-01-25T05:18:14;1.40;99.90
40153;DHT22;26371;56.992;23.912;2024-01-25T05:20:43;1.30;99.90
40153;DHT22;26371;56.992;23.912;2024-01-25T05:23:12;1.30;99.90
40153;DHT22;26371;56.992;23.912;2024-01-25T05:25:41;1.20;99.90
40153;DHT22;26371;56.992;23.912;2024-01-25T05:28:13;1.30;99.90
40153;DHT22;26371;56.992;23.912;2024-01-25T05:30:42;1.20;99.90
40153;DHT22;26371;56.992;23.912;2024-01-25T05:33:13;1.10;99.90
40153;DHT22;26371;56.992;23.912;2024-01-25T05:35:42;1.10;99.90
40153;DHT22;26371;56.992;23.912;2024-01-25T05:38:10;1.10;99.90
40153;DHT22;26371;56.992;23.912;2024-01-25T05:40:39;1.00;99.90
40153;DHT22;26371;56.992;23.912;2024-01-25T05:43:08;1.00;99.90
40153;DHT22;26371;56.992;23.912;2024-01-25T05:45:37;1.00;99.90
40153;DHT22;26371;56.992;23.912;2024-01-25T05:48:06;1.00;99.90
40153;DHT22;26371;56.992;23.912;2024-01-25T05:50:36;1.00;99.90
40153;DHT22;26371;56.992;23.912;2024-01-25T05:53:05;0.90;99.90
40153;DHT22;26371;56.992;23.912;2024-01-25T05:55:34;0.90;99.90
40153;DHT22;26371;56.992;23.912;2024-01-25T05:58:03;0.90;99.90
40153;DHT22;26371;56.992;23.912;2024-01-25T06:00:34;0.90;99.90
40153;DHT22;26371;56.992;23.912;2024-01-25T06:03:03;0.90;99.90
40153;DHT22;26371;56.992;23.912;2024-01-25T06:05:32;0.90;99.90
40153;DHT22;26371;56.992;23.912;2024-01-25T06:08:02;0.90;99.90
40153;DHT22;26371;56.992;23.912;2024-01-25T06:10:33;0.90;99.90
40153;DHT22;26371;56.992;23.912;2024-01-25T06:13:02;0.90;99.90
40153;DHT22;26371;56.992;23.912;2024-01-25T06:15:30;0.90;99.90
40153;DHT22;26371;56.992;23.912;2024-01-25T06:17:59;0.90;99.90
40153;DHT22;26371;56.992;23.912;2024-01-25T06:20:28;0.90;99.90
40153;DHT22;26371;56.992;23.912;2024-01-25T06:22:57;0.90;99.90
40153;DHT22;26371;56.992;23.912;2024-01-25T06:25:27;0.90;99.90
40153;DHT22;26371;56.992;23.912;2024-01-25T06:27:58;1.00;99.90
40153;DHT22;26371;56.992;23.912;2024-01-25T06:30:27;1.00;99.90
40153;DHT22;26371;56.992;23.912;2024-01-25T06:32:56;0.90;99.90
40153;DHT22;26371;56.992;23.912;2024-01-25T06:35:25;0.90;99.90
40153;DHT22;26371;56.992;23.912;2024-01-25T06:37:54;0.90;99.90
40153;DHT22;26371;56.992;23.912;2024-01-25T06:40:22;1.00;99.90
40153;DHT22;26371;56.992;23.912;2024-01-25T06:42:52;1.00;99.90
40153;DHT22;26371;56.992;23.912;2024-01-25T06:45:21;0.90;99.90
40153;DHT22;26371;56.992;23.912;2024-01-25T06:47:49;1.00;99.90
40153;DHT22;26371;56.992;23.912;2024-01-25T06:50:18;0.90;99.90
40153;DHT22;26371;56.992;23.912;2024-01-25T06:52:47;0.80;99.90
40153;DHT22;26371;56.992;23.912;2024-01-25T06:55:17;0.90;99.90
40153;DHT22;26371;56.992;23.912;2024-01-25T06:57:46;0.90;99.90
40153;DHT22;26371;56.992;23.912;2024-01-25T07:00:17;0.80;99.90
40153;DHT22;26371;56.992;23.912;2024-01-25T07:02:48;0.80;99.90
40153;DHT22;26371;56.992;23.912;2024-01-25T07:05:19;0.90;99.90
40153;DHT22;26371;56.992;23.912;2024-01-25T07:07:48;0.90;99.90
40153;DHT22;26371;56.992;23.912;2024-01-25T07:10:17;0.90;99.90
40153;DHT22;26371;56.992;23.912;2024-01-25T07:12:45;0.90;99.90
40153;DHT22;26371;56.992;23.912;2024-01-25T07:15:16;0.90;99.90
40153;DHT22;26371;56.992;23.912;2024-01-25T07:17:45;0.90;99.90
40153;DHT22;26371;56.992;23.912;2024-01-25T07:20:13;1.00;99.90
40153;DHT22;26371;56.992;23.912;2024-01-25T07:22:42;1.00;99.90
40153;DHT22;26371;56.992;23.912;2024-01-25T07:25:11;1.00;99.90
40153;DHT22;26371;56.992;23.912;2024-01-25T07:27:41;1.10;99.90
40153;DHT22;26371;56.992;23.912;2024-01-25T07:30:13;1.10;99.90
40153;DHT22;26371;56.992;23.912;2024-01-25T07:32:44;1.10;99.90
40153;DHT22;26371;56.992;23.912;2024-01-25T07:35:13;1.10;99.90
40153;DHT22;26371;56.992;23.912;2024-01-25T07:37:42;1.10;99.90
40153;DHT22;26371;56.992;23.912;2024-01-25T07:40:12;1.10;99.90
40153;DHT22;26371;56.992;23.912;2024-01-25T07:42:40;1.10;99.90
40153;DHT22;26371;56.992;23.912;2024-01-25T07:45:10;1.10;99.90
40153;DHT22;26371;56.992;23.912;2024-01-25T07:47:42;1.10;99.90
40153;DHT22;26371;56.992;23.912;2024-01-25T07:50:12;1.10;99.90
40153;DHT22;26371;56.992;23.912;2024-01-25T07:52:40;1.20;99.90
40153;DHT22;26371;56.992;23.912;2024-01-25T07:55:09;1.10;99.90
40153;DHT22;26371;56.992;23.912;2024-01-25T07:57:38;1.10;99.90
40153;DHT22;26371;56.992;23.912;2024-01-25T08:00:07;1.10;99.90
40153;DHT22;26371;56.992;23.912;2024-01-25T08:02:36;1.10;99.90
40153;DHT22;26371;56.992;23.912;2024-01-25T08:05:08;1.10;99.90
40153;DHT22;26371;56.992;23.912;2024-01-25T08:07:38;1.10;99.90
40153;DHT22;26371;56.992;23.912;2024-01-25T08:10:08;1.10;99.90
40153;DHT22;26371;56.992;23.912;2024-01-25T08:12:37;1.10;99.90
40153;DHT22;26371;56.992;23.912;2024-01-25T08:15:14;1.10;99.90
40153;DHT22;26371;56.992;23.912;2024-01-25T08:17:43;1.10;99.90
40153;DHT22;26371;56.992;23.912;2024-01-25T08:20:13;1.10;99.90
40153;DHT22;26371;56.992;23.912;2024-01-25T08:22:42;1.10;99.90
40153;DHT22;26371;56.992;23.912;2024-01-25T08:25:12;1.10;99.90
40153;DHT22;26371;56.992;23.912;2024-01-25T08:27:41;1.10;99.90
40153;DHT22;26371;56.992;23.912;2024-01-25T08:30:11;1.10;99.90
40153;DHT22;26371;56.992;23.912;2024-01-25T08:32:39;1.10;99.90
40153;DHT22;26371;56.992;23.912;2024-01-25T08:35:08;1.10;99.90
40153;DHT22;26371;56.992;23.912;2024-01-25T08:37:39;1.20;99.90
40153;DHT22;26371;56.992;23.912;2024-01-25T08:40:09;1.20;99.90
40153;DHT22;26371;56.992;23.912;2024-01-25T08:42:38;1.20;99.90
40153;DHT22;26371;56.992;23.912;2024-01-25T08:45:07;1.20;99.90
40153;DHT22;26371;56.992;23.912;2024-01-25T08:47:38;1.30;99.90
40153;DHT22;26371;56.992;23.912;2024-01-25T08:50:08;1.30;99.90
40153;DHT22;26371;56.992;23.912;2024-01-25T08:52:40;1.30;99.90
40153;DHT22;26371;56.992;23.912;2024-01-25T08:55:09;1.30;99.90
40153;DHT22;26371;56.992;23.912;2024-01-25T08:57:38;1.30;99.90
40153;DHT22;26371;56.992;23.912;2024-01-25T09:00:09;1.30;99.90
40153;DHT22;26371;56.992;23.912;2024-01-25T09:02:38;1.30;99.90
40153;DHT22;26371;56.992;23.912;2024-01-25T09:05:08;1.30;99.90
40153;DHT22;26371;56.992;23.912;2024-01-25T09:07:37;1.40;99.90
40153;DHT22;26371;56.992;23.912;2024-01-25T09:10:08;1.40;99.90
40153;DHT22;26371;56.992;23.912;2024-01-25T09:12:37;1.30;99.90
40153;DHT22;26371;56.992;23.912;2024-01-25T09:15:07;1.30;99.90
40153;DHT22;26371;56.992;23.912;2024-01-25T09:17:36;1.30;99.90
40153;DHT22;26371;56.992;23.912;2024-01-25T09:20:07;1.30;99.90
40153;DHT22;26371;56.992;23.912;2024-01-25T09:22:36;1.30;99.90
40153;DHT22;26371;56.992;23.912;2024-01-25T09:25:07;1.30;99.90
40153;DHT22;26371;56.992;23.912;2024-01-25T09:27:36;1.30;99.90
40153;DHT22;26371;56.992;23.912;2024-01-25T09:30:07;1.30;99.90
40153;DHT22;26371;56.992;23.912;2024-01-25T09:32:36;1.30;99.90
40153;DHT22;26371;56.992;23.912;2024-01-25T09:35:05;1.30;99.90
40153;DHT22;26371;56.992;23.912;2024-01-25T09:37:35;1.40;99.90
40153;DHT22;26371;56.992;23.912;2024-01-25T09:40:07;1.30;99.90
40153;DHT22;26371;56.992;23.912;2024-01-25T09:42:37;1.40;99.90
40153;DHT22;26371;56.992;23.912;2024-01-25T09:45:07;1.30;99.90
40153;DHT22;26371;56.992;23.912;2024-01-25T09:47:36;1.30;99.90
40153;DHT22;26371;56.992;23.912;2024-01-25T09:50:07;1.30;99.90
40153;DHT22;26371;56.992;23.912;2024-01-25T09:52:38;1.30;99.90
40153;DHT22;26371;56.992;23.912;2024-01-25T09:55:11;1.30;99.90
40153;DHT22;26371;56.992;23.912;2024-01-25T09:57:45;1.40;99.90
40153;DHT22;26371;56.992;23.912;2024-01-25T10:00:16;1.40;99.90
40153;DHT22;26371;56.992;23.912;2024-01-25T10:02:47;1.40;99.90
40153;DHT22;26371;56.992;23.912;2024-01-25T10:05:16;1.40;99.90
40153;DHT22;26371;56.992;23.912;2024-01-25T10:07:46;1.40;99.90
40153;DHT22;26371;56.992;23.912;2024-01-25T10:10:16;1.40;99.90
40153;DHT22;26371;56.992;23.912;2024-01-25T10:12:45;1.40;99.90
40153;DHT22;26371;56.992;23.912;2024-01-25T10:15:14;1.40;99.90
40153;DHT22;26371;56.992;23.912;2024-01-25T10:17:43;1.40;99.90
40153;DHT22;26371;56.992;23.912;2024-01-25T10:20:32;1.40;99.90
40153;DHT22;26371;56.992;23.912;2024-01-25T10:23:02;1.50;99.90
40153;DHT22;26371;56.992;23.912;2024-01-25T10:25:35;1.50;99.90
40153;DHT22;26371;56.992;23.912;2024-01-25T10:28:05;1.50;99.90
40153;DHT22;26371;56.992;23.912;2024-01-25T10:30:35;1.50;99.90
40153;DHT22;26371;56.992;23.912;2024-01-25T10:33:04;1.50;99.90
40153;DHT22;26371;56.992;23.912;2024-01-25T10:35:34;1.50;99.90
40153;DHT22;26371;56.992;23.912;2024-01-25T10:38:04;1.50;99.90
40153;DHT22;26371;56.992;23.912;2024-01-25T10:40:36;1.50;99.90
40153;DHT22;26371;56.992;23.912;2024-01-25T10:43:05;1.50;99.90
40153;DHT22;26371;56.992;23.912;2024-01-25T10:45:35;1.50;99.90
40153;DHT22;26371;56.992;23.912;2024-01-25T10:48:05;1.50;99.90
40153;DHT22;26371;56.992;23.912;2024-01-25T10:50:35;1.50;99.90
40153;DHT22;26371;56.992;23.912;2024-01-25T10:53:07;1.50;99.90
40153;DHT22;26371;56.992;23.912;2024-01-25T10:55:38;1.50;99.90
40153;DHT22;26371;56.992;23.912;2024-01-25T10:58:13;1.50;99.90
40153;DHT22;26371;56.992;23.912;2024-01-25T11:00:42;1.50;99.90
40153;DHT22;26371;56.992;23.912;2024-01-25T11:03:18;1.50;99.90
40153;DHT22;26371;56.992;23.912;2024-01-25T11:05:48;1.50;99.90
40153;DHT22;26371;56.992;23.912;2024-01-25T11:08:20;1.50;99.90
40153;DHT22;26371;56.992;23.912;2024-01-25T11:10:51;1.40;99.90
40153;DHT22;26371;56.992;23.912;2024-01-25T11:13:24;1.40;99.90
40153;DHT22;26371;56.992;23.912;2024-01-25T11:15:54;1.40;99.90
40153;DHT22;26371;56.992;23.912;2024-01-25T11:18:25;1.30;99.90
40153;DHT22;26371;56.992;23.912;2024-01-25T11:21:00;1.30;99.90
40153;DHT22;26371;56.992;23.912;2024-01-25T11:23:32;1.30;99.90
40153;DHT22;26371;56.992;23.912;2024-01-25T11:26:02;1.30;99.90
40153;DHT22;26371;56.992;23.912;2024-01-25T11:28:31;1.30;99.90
40153;DHT22;26371;56.992;23.912;2024-01-25T11:31:00;1.30;99.90
40153;DHT22;26371;56.992;23.912;2024-01-25T11:33:29;1.30;99.90
40153;DHT22;26371;56.992;23.912;2024-01-25T11:35:57;1.30;99.90
40153;DHT22;26371;56.992;23.912;2024-01-25T11:38:26;1.30;99.90
40153;DHT22;26371;56.992;23.912;2024-01-25T11:40:57;1.30;99.90
40153;DHT22;26371;56.992;23.912;2024-01-25T11:43:27;1.30;99.90
40153;DHT22;26371;56.992;23.912;2024-01-25T11:45:56;1.30;99.90
40153;DHT22;26371;56.992;23.912;2024-01-25T11:48:27;1.30;99.90
40153;DHT22;26371;56.992;23.912;2024-01-25T11:50:57;1.40;99.90
40153;DHT22;26371;56.992;23.912;2024-01-25T11:53:26;1.40;99.90
40153;DHT22;26371;56.992;23.912;2024-01-25T11:55:55;1.40;99.90
40153;DHT22;26371;56.992;23.912;2024-01-25T11:58:26;1.40;99.90
40153;DHT22;26371;56.992;23.912;2024-01-25T12:01:01;1.40;99.90
40153;DHT22;26371;56.992;23.912;2024-01-25T12:03:33;1.40;99.90
40153;DHT22;26371;56.992;23.912;2024-01-25T12:06:03;1.40;99.90
40153;DHT22;26371;56.992;23.912;2024-01-25T12:08:32;1.40;99.90
40153;DHT22;26371;56.992;23.912;2024-01-25T12:11:05;1.40;99.90
40153;DHT22;26371;56.992;23.912;2024-01-25T12:13:36;1.40;99.90
40153;DHT22;26371;56.992;23.912;2024-01-25T12:16:05;1.40;99.90
40153;DHT22;26371;56.992;23.912;2024-01-25T12:18:35;1.40;99.90
40153;DHT22;26371;56.992;23.912;2024-01-25T12:21:05;1.40;99.90
40153;DHT22;26371;56.992;23.912;2024-01-25T12:23:34;1.50;99.90
40153;DHT22;26371;56.992;23.912;2024-01-25T12:26:04;1.40;99.90
40153;DHT22;26371;56.992;23.912;2024-01-25T12:28:39;1.40;99.90
40153;DHT22;26371;56.992;23.912;2024-01-25T12:31:08;1.40;99.90
40153;DHT22;26371;56.992;23.912;2024-01-25T12:33:37;1.40;99.90
40153;DHT22;26371;56.992;23.912;2024-01-25T12:36:06;1.40;99.90
40153;DHT22;26371;56.992;23.912;2024-01-25T12:38:36;1.40;99.90
40153;DHT22;26371;56.992;23.912;2024-01-25T12:41:04;1.40;99.90
40153;DHT22;26371;56.992;23.912;2024-01-25T12:43:33;1.40;99.90
40153;DHT22;26371;56.992;23.912;2024-01-25T12:46:04;1.40;99.90
40153;DHT22;26371;56.992;23.912;2024-01-25T12:48:52;1.40;99.90
40153;DHT22;26371;56.992;23.912;2024-01-25T12:51:24;1.40;99.90
40153;DHT22;26371;56.992;23.912;2024-01-25T12:53:53;1.40;99.90
40153;DHT22;26371;56.992;23.912;2024-01-25T12:56:22;1.30;99.90
40153;DHT22;26371;56.992;23.912;2024-01-25T12:58:51;1.30;99.90
40153;DHT22;26371;56.992;23.912;2024-01-25T13:01:21;1.30;99.90
40153;DHT22;26371;56.992;23.912;2024-01-25T13:03:50;1.40;99.90
40153;DHT22;26371;56.992;23.912;2024-01-25T13:06:19;1.40;99.90
40153;DHT22;26371;56.992;23.912;2024-01-25T13:08:47;1.30;99.90
40153;DHT22;26371;56.992;23.912;2024-01-25T13:11:17;1.40;99.90
40153;DHT22;26371;56.992;23.912;2024-01-25T13:13:48;1.40;99.90
40153;DHT22;26371;56.992;23.912;2024-01-25T13:16:18;1.40;99.90
40153;DHT22;26371;56.992;23.912;2024-01-25T13:18:48;1.40;99.90
40153;DHT22;26371;56.992;23.912;2024-01-25T13:21:17;1.40;99.90
40153;DHT22;26371;56.992;23.912;2024-01-25T13:23:46;1.40;99.90
40153;DHT22;26371;56.992;23.912;2024-01-25T13:26:15;1.40;99.90
40153;DHT22;26371;56.992;23.912;2024-01-25T13:28:44;1.40;99.90
40153;DHT22;26371;56.992;23.912;2024-01-25T13:31:13;1.40;99.90
40153;DHT22;26371;56.992;23.912;2024-01-25T13:33:42;1.40;99.90
40153;DHT22;26371;56.992;23.912;2024-01-25T13:36:15;1.40;99.90
40153;DHT22;26371;56.992;23.912;2024-01-25T13:38:44;1.40;99.90
40153;DHT22;26371;56.992;23.912;2024-01-25T13:41:13;1.50;99.90
40153;DHT22;26371;56.992;23.912;2024-01-25T13:43:42;1.50;99.90
40153;DHT22;26371;56.992;23.912;2024-01-25T13:46:11;1.40;99.90
40153;DHT22;26371;56.992;23.912;2024-01-25T13:48:41;1.50;99.90
40153;DHT22;26371;56.992;23.912;2024-01-25T13:51:10;1.50;99.90
40153;DHT22;26371;56.992;23.912;2024-01-25T13:53:40;1.50;99.90
40153;DHT22;26371;56.992;23.912;2024-01-25T13:56:10;1.50;99.90
40153;DHT22;26371;56.992;23.912;2024-01-25T13:58:39;1.50;99.90
40153;DHT22;26371;56.992;23.912;2024-01-25T14:01:08;1.50;99.90
40153;DHT22;26371;56.992;23.912;2024-01-25T14:03:36;1.50;99.90
40153;DHT22;26371;56.992;23.912;2024-01-25T14:06:07;1.50;99.90
40153;DHT22;26371;56.992;23.912;2024-01-25T14:08:39;1.50;99.90
40153;DHT22;26371;56.992;23.912;2024-01-25T14:11:09;1.50;99.90
40153;DHT22;26371;56.992;23.912;2024-01-25T14:13:38;1.50;99.90
40153;DHT22;26371;56.992;23.912;2024-01-25T14:16:07;1.50;99.90
40153;DHT22;26371;56.992;23.912;2024-01-25T14:18:39;1.50;99.90
40153;DHT22;26371;56.992;23.912;2024-01-25T14:21:08;1.50;99.90
40153;DHT22;26371;56.992;23.912;2024-01-25T14:23:40;1.50;99.90
40153;DHT22;26371;56.992;23.912;2024-01-25T14:26:09;1.50;99.90
40153;DHT22;26371;56.992;23.912;2024-01-25T14:28:38;1.50;99.90
40153;DHT22;26371;56.992;23.912;2024-01-25T14:31:08;1.50;99.90
40153;DHT22;26371;56.992;23.912;2024-01-25T14:33:37;1.50;99.90
40153;DHT22;26371;56.992;23.912;2024-01-25T14:36:10;1.50;99.90
40153;DHT22;26371;56.992;23.912;2024-01-25T14:38:41;1.50;99.90
40153;DHT22;26371;56.992;23.912;2024-01-25T14:41:09;1.50;99.90
40153;DHT22;26371;56.992;23.912;2024-01-25T14:43:38;1.50;99.90
40153;DHT22;26371;56.992;23.912;2024-01-25T14:46:07;1.50;99.90
40153;DHT22;26371;56.992;23.912;2024-01-25T14:48:36;1.50;99.90
40153;DHT22;26371;56.992;23.912;2024-01-25T14:51:06;1.50;99.90
40153;DHT22;26371;56.992;23.912;2024-01-25T14:53:34;1.50;99.90
40153;DHT22;26371;56.992;23.912;2024-01-25T14:56:05;1.50;99.90
40153;DHT22;26371;56.992;23.912;2024-01-25T14:58:35;1.50;99.90
40153;DHT22;26371;56.992;23.912;2024-01-25T15:01:05;1.50;99.90
40153;DHT22;26371;56.992;23.912;2024-01-25T15:03:33;1.40;99.90
40153;DHT22;26371;56.992;23.912;2024-01-25T15:06:02;1.50;99.90
40153;DHT22;26371;56.992;23.912;2024-01-25T15:08:31;1.50;99.90
40153;DHT22;26371;56.992;23.912;2024-01-25T15:11:00;1.40;99.90
40153;DHT22;26371;56.992;23.912;2024-01-25T15:13:30;1.40;99.90
40153;DHT22;26371;56.992;23.912;2024-01-25T15:15:59;1.40;99.90
40153;DHT22;26371;56.992;23.912;2024-01-25T15:18:29;1.40;99.90
40153;DHT22;26371;56.992;23.912;2024-01-25T15:20:59;1.50;99.90
40153;DHT22;26371;56.992;23.912;2024-01-25T15:23:29;1.50;99.90
40153;DHT22;26371;56.992;23.912;2024-01-25T15:25:59;1.50;99.90
40153;DHT22;26371;56.992;23.912;2024-01-25T15:28:30;1.50;99.90
40153;DHT22;26371;56.992;23.912;2024-01-25T15:31:00;1.50;99.90
40153;DHT22;26371;56.992;23.912;2024-01-25T15:33:29;1.50;99.90
40153;DHT22;26371;56.992;23.912;2024-01-25T15:35:58;1.50;99.90
40153;DHT22;26371;56.992;23.912;2024-01-25T15:38:27;1.50;99.90
40153;DHT22;26371;56.992;23.912;2024-01-25T15:40:56;1.50;99.90
40153;DHT22;26371;56.992;23.912;2024-01-25T15:43:24;1.50;99.90
40153;DHT22;26371;56.992;23.912;2024-01-25T15:45:54;1.50;99.90